الصفحة الرئيسية
METAR-TAF:

METAR-TAF

مطار :

Yap, مايكرونيزيا

دائرة عرض: 09-29N, خط طول: 138-05E, ارتفاع: 28 متر

مراقبة الطقس الحالي

تاريخ ووقت الإصدار 17 دقيقة قبل الساعة 13:50UTC
ريح 4 عقدةمن اتجاهات متغيرة
درجة الحرارة 28°درجة مئوية
الرطوبة 89%
ضغط 1013 hPa
الرؤية: 19.3 كم
غيوم قليلة على ارتفاع 1600 قدم
غيوم متفرقة على ارتفاع 13000 قدم
غيوم مفككة على ارتفاع 30000 قدم

METAR: PTYA 301350Z VRB04KT 12SM FEW016 SCT130 BKN300 28/26 A2990 RMK SLP127 T02770261

زمن: 00:07 (14:07 UTC)

توقعات

تاريخ ووقت الإصدار 2ساعات و 47 دقيقة قبل الساعة 11:20UTC
التوقعات صالحة من30 الساعة 12 UTC إلى 31 الساعة 12 UTC
ريح 10 عقدة من الشرق/الشمال الشرقي
الرؤية: 10 كم
غيوم متفرقة على ارتفاع 1600 قدم
غيوم متفرقة على ارتفاع 13000 قدم
زخات في الجوار
مؤقت
من 30 الساعة 12 UTC إلى 30 الساعة 16 UTC
الرؤية: 8.0 كم
غيوم مفككة على ارتفاع 1500 قدم
ملبد بالغيوم على ارتفاع 3000 قدم
زخات من الأمطار الخفيفة,

TAF: PTYA 301120Z 3012/3112 07010KT P6SM VCSH SCT016 SCT130 TEMPO 3012/3016 5SM -SHRA BKN015 OVC030

أرصاد الطقس والتوقعات من أكثر من 4000 مطار (تقارير الطقس للمطار METAR والتنبؤ بالطقس بالمطارTAF).

المحطات المتاحة هي النقط الصفراء والحمراء على الخريطة.

حرك المؤشر فوق النقطة لمعرفة اسم المحطة.

ثم انقر لمعرفة أرصاد وتوقعات الطقس.

لتغيير الخارطة: اضغط على الأزرار الخضراء مع رمز الصليب الأسود للتكبير. على الزر الأخضر مع شرطة للتصغير، أو على الأسهم الخضراء للخرائط المجاورة.


METAR-TAF: